sensor_id;sensor_type;location;lat;lon;timestamp;pressure;altitude;pressure_sealevel;temperature;humidity
79709;BME280;69203;48.964;9.118;2023-04-15T00:00:27;97936.19;;;3.43;80.54
79709;BME280;69203;48.964;9.118;2023-04-15T00:01:28;97937.63;;;3.48;80.88
79709;BME280;69203;48.964;9.118;2023-04-15T00:02:29;97949.00;;;3.46;80.71
79709;BME280;69203;48.964;9.118;2023-04-15T00:03:29;97935.09;;;3.31;82.13
79709;BME280;69203;48.964;9.118;2023-04-15T00:04:29;97938.50;;;3.31;81.75
79709;BME280;69203;48.964;9.118;2023-04-15T00:05:32;97931.53;;;3.16;81.58
79709;BME280;69203;48.964;9.118;2023-04-15T00:06:33;97937.00;;;3.27;80.87
79709;BME280;69203;48.964;9.118;2023-04-15T00:07:34;97945.47;;;3.31;81.84
79709;BME280;69203;48.964;9.118;2023-04-15T00:08:35;97936.06;;;3.28;81.70
79709;BME280;69203;48.964;9.118;2023-04-15T00:09:35;97942.28;;;3.26;81.24
79709;BME280;69203;48.964;9.118;2023-04-15T00:10:36;97943.94;;;3.27;81.53
79709;BME280;69203;48.964;9.118;2023-04-15T00:11:36;97928.19;;;3.14;81.90
79709;BME280;69203;48.964;9.118;2023-04-15T00:12:36;97941.34;;;3.27;82.35
79709;BME280;69203;48.964;9.118;2023-04-15T00:13:37;97934.91;;;3.34;81.74
79709;BME280;69203;48.964;9.118;2023-04-15T00:14:38;97939.44;;;3.30;82.16
79709;BME280;69203;48.964;9.118;2023-04-15T00:15:40;97938.59;;;3.30;82.24
79709;BME280;69203;48.964;9.118;2023-04-15T00:16:40;97934.63;;;3.23;82.06
79709;BME280;69203;48.964;9.118;2023-04-15T00:17:41;97941.44;;;3.25;82.70
79709;BME280;69203;48.964;9.118;2023-04-15T00:18:42;97932.47;;;3.15;82.85
79709;BME280;69203;48.964;9.118;2023-04-15T00:19:42;97945.00;;;3.23;82.82
79709;BME280;69203;48.964;9.118;2023-04-15T00:20:44;97937.78;;;3.12;82.19
79709;BME280;69203;48.964;9.118;2023-04-15T00:21:45;97940.56;;;3.09;82.24
79709;BME280;69203;48.964;9.118;2023-04-15T00:22:45;97944.81;;;3.10;83.00
79709;BME280;69203;48.964;9.118;2023-04-15T00:23:46;97948.50;;;3.06;82.08
79709;BME280;69203;48.964;9.118;2023-04-15T00:24:54;97946.81;;;3.05;82.45
79709;BME280;69203;48.964;9.118;2023-04-15T00:25:54;97936.38;;;3.07;82.64
79709;BME280;69203;48.964;9.118;2023-04-15T00:26:55;97944.97;;;3.07;82.63
79709;BME280;69203;48.964;9.118;2023-04-15T00:27:55;97930.44;;;3.05;83.12
79709;BME280;69203;48.964;9.118;2023-04-15T00:28:55;97942.22;;;3.10;82.90
79709;BME280;69203;48.964;9.118;2023-04-15T00:29:56;97934.59;;;3.07;83.14
79709;BME280;69203;48.964;9.118;2023-04-15T00:30:56;97945.81;;;3.08;83.48
79709;BME280;69203;48.964;9.118;2023-04-15T00:31:57;97927.31;;;2.98;83.90
79709;BME280;69203;48.964;9.118;2023-04-15T00:32:57;97940.31;;;3.14;83.25
79709;BME280;69203;48.964;9.118;2023-04-15T00:33:57;97921.81;;;3.04;83.11
79709;BME280;69203;48.964;9.118;2023-04-15T00:34:58;97935.38;;;3.09;82.55
79709;BME280;69203;48.964;9.118;2023-04-15T00:35:59;97941.06;;;3.16;82.58
79709;BME280;69203;48.964;9.118;2023-04-15T00:36:59;97944.03;;;3.25;82.44
79709;BME280;69203;48.964;9.118;2023-04-15T00:37:59;97932.50;;;3.31;81.82
79709;BME280;69203;48.964;9.118;2023-04-15T00:39:00;97932.88;;;3.23;82.08
79709;BME280;69203;48.964;9.118;2023-04-15T00:40:02;97932.81;;;3.25;82.79
79709;BME280;69203;48.964;9.118;2023-04-15T00:41:05;97930.84;;;3.13;82.55
79709;BME280;69203;48.964;9.118;2023-04-15T00:42:06;97934.13;;;3.16;82.57
79709;BME280;69203;48.964;9.118;2023-04-15T00:43:07;97924.44;;;3.20;83.08
79709;BME280;69203;48.964;9.118;2023-04-15T00:44:08;97927.38;;;3.29;82.25
79709;BME280;69203;48.964;9.118;2023-04-15T00:45:08;97922.25;;;3.28;82.56
79709;BME280;69203;48.964;9.118;2023-04-15T00:46:11;97916.13;;;3.13;82.60
79709;BME280;69203;48.964;9.118;2023-04-15T00:47:12;97925.00;;;3.09;82.16
79709;BME280;69203;48.964;9.118;2023-04-15T00:48:13;97915.47;;;3.10;83.15
79709;BME280;69203;48.964;9.118;2023-04-15T00:49:14;97921.50;;;3.10;82.76
79709;BME280;69203;48.964;9.118;2023-04-15T00:50:14;97914.56;;;3.11;82.88
79709;BME280;69203;48.964;9.118;2023-04-15T00:51:15;97912.41;;;3.02;83.07
79709;BME280;69203;48.964;9.118;2023-04-15T00:52:15;97927.19;;;3.17;83.11
79709;BME280;69203;48.964;9.118;2023-04-15T00:53:16;97921.78;;;3.21;82.12
79709;BME280;69203;48.964;9.118;2023-04-15T00:54:16;97923.28;;;3.25;82.19
79709;BME280;69203;48.964;9.118;2023-04-15T00:55:17;97915.75;;;3.21;81.97
79709;BME280;69203;48.964;9.118;2023-04-15T00:56:20;97926.25;;;3.18;81.70
79709;BME280;69203;48.964;9.118;2023-04-15T00:57:23;97928.25;;;3.13;82.28
79709;BME280;69203;48.964;9.118;2023-04-15T00:58:25;97926.22;;;3.02;82.57
79709;BME280;69203;48.964;9.118;2023-04-15T00:59:27;97926.78;;;2.91;82.97
79709;BME280;69203;48.964;9.118;2023-04-15T01:00:28;97931.22;;;2.89;83.31
79709;BME280;69203;48.964;9.118;2023-04-15T01:01:29;97931.84;;;2.77;83.98
79709;BME280;69203;48.964;9.118;2023-04-15T01:02:30;97937.84;;;2.78;84.45
79709;BME280;69203;48.964;9.118;2023-04-15T01:03:31;97931.31;;;2.71;84.68
79709;BME280;69203;48.964;9.118;2023-04-15T01:04:32;97940.28;;;2.81;84.42
79709;BME280;69203;48.964;9.118;2023-04-15T01:05:32;97946.63;;;2.75;84.89
79709;BME280;69203;48.964;9.118;2023-04-15T01:06:33;97944.97;;;2.74;84.83
79709;BME280;69203;48.964;9.118;2023-04-15T01:07:33;97941.38;;;2.77;84.34
79709;BME280;69203;48.964;9.118;2023-04-15T01:08:34;97942.38;;;2.74;84.37
79709;BME280;69203;48.964;9.118;2023-04-15T01:09:34;97948.34;;;2.92;83.82
79709;BME280;69203;48.964;9.118;2023-04-15T01:10:34;97943.66;;;2.83;83.85
79709;BME280;69203;48.964;9.118;2023-04-15T01:11:35;97944.41;;;2.85;83.79
79709;BME280;69203;48.964;9.118;2023-04-15T01:12:37;97941.06;;;2.83;83.80
79709;BME280;69203;48.964;9.118;2023-04-15T01:13:38;97944.84;;;2.93;84.02
79709;BME280;69203;48.964;9.118;2023-04-15T01:14:39;97949.00;;;3.13;82.65
79709;BME280;69203;48.964;9.118;2023-04-15T01:15:40;97949.16;;;3.10;82.13
79709;BME280;69203;48.964;9.118;2023-04-15T01:16:40;97949.47;;;3.04;82.95
79709;BME280;69203;48.964;9.118;2023-04-15T01:17:41;97944.31;;;2.86;83.63
79709;BME280;69203;48.964;9.118;2023-04-15T01:18:42;97950.28;;;2.88;83.55
79709;BME280;69203;48.964;9.118;2023-04-15T01:19:42;97942.97;;;2.79;84.00
79709;BME280;69203;48.964;9.118;2023-04-15T01:20:42;97939.19;;;2.69;83.89
79709;BME280;69203;48.964;9.118;2023-04-15T01:21:44;97948.00;;;2.65;84.13
79709;BME280;69203;48.964;9.118;2023-04-15T01:22:44;97943.97;;;2.60;84.45
79709;BME280;69203;48.964;9.118;2023-04-15T01:23:46;97939.16;;;2.52;84.83
79709;BME280;69203;48.964;9.118;2023-04-15T01:24:54;97942.75;;;2.49;84.31
79709;BME280;69203;48.964;9.118;2023-04-15T01:25:56;97946.34;;;2.47;84.23
79709;BME280;69203;48.964;9.118;2023-04-15T01:26:58;97936.94;;;2.44;83.96
79709;BME280;69203;48.964;9.118;2023-04-15T01:28:00;97946.16;;;2.50;84.39
79709;BME280;69203;48.964;9.118;2023-04-15T01:29:01;97928.50;;;2.41;84.04
79709;BME280;69203;48.964;9.118;2023-04-15T01:30:01;97941.47;;;2.58;84.26
79709;BME280;69203;48.964;9.118;2023-04-15T01:32:06;97943.22;;;2.58;84.10
79709;BME280;69203;48.964;9.118;2023-04-15T01:33:06;97925.16;;;2.56;83.79
79709;BME280;69203;48.964;9.118;2023-04-15T01:34:07;97937.84;;;2.78;83.23
79709;BME280;69203;48.964;9.118;2023-04-15T01:35:08;97942.88;;;2.81;84.02
79709;BME280;69203;48.964;9.118;2023-04-15T01:36:09;97938.69;;;2.78;83.73
79709;BME280;69203;48.964;9.118;2023-04-15T01:37:10;97937.56;;;2.84;83.95
79709;BME280;69203;48.964;9.118;2023-04-15T01:38:12;97930.69;;;2.83;83.10
79709;BME280;69203;48.964;9.118;2023-04-15T01:39:13;97923.88;;;2.80;83.38
79709;BME280;69203;48.964;9.118;2023-04-15T01:40:13;97941.00;;;2.84;83.05
79709;BME280;69203;48.964;9.118;2023-04-15T01:41:14;97923.63;;;2.69;83.55
79709;BME280;69203;48.964;9.118;2023-04-15T01:42:14;97939.91;;;2.71;83.41
79709;BME280;69203;48.964;9.118;2023-04-15T01:43:15;97920.63;;;2.60;83.05
79709;BME280;69203;48.964;9.118;2023-04-15T01:44:15;97931.22;;;2.72;83.36
79709;BME280;69203;48.964;9.118;2023-04-15T01:45:16;97938.69;;;2.78;83.79
79709;BME280;69203;48.964;9.118;2023-04-15T01:46:16;97938.69;;;2.78;83.76
79709;BME280;69203;48.964;9.118;2023-04-15T01:47:17;97935.63;;;2.70;83.66
79709;BME280;69203;48.964;9.118;2023-04-15T01:48:17;97931.59;;;2.65;83.50
79709;BME280;69203;48.964;9.118;2023-04-15T01:49:18;97924.84;;;2.62;83.62
79709;BME280;69203;48.964;9.118;2023-04-15T01:50:18;97933.38;;;2.64;84.28
79709;BME280;69203;48.964;9.118;2023-04-15T01:51:19;97934.66;;;2.73;84.21
79709;BME280;69203;48.964;9.118;2023-04-15T01:52:20;97929.56;;;2.71;83.52
79709;BME280;69203;48.964;9.118;2023-04-15T01:53:20;97932.06;;;2.73;83.34
79709;BME280;69203;48.964;9.118;2023-04-15T01:54:20;97929.25;;;2.60;83.06
79709;BME280;69203;48.964;9.118;2023-04-15T01:55:21;97927.38;;;2.64;82.68
79709;BME280;69203;48.964;9.118;2023-04-15T01:56:21;97936.72;;;2.66;83.32
79709;BME280;69203;48.964;9.118;2023-04-15T01:57:23;97920.09;;;2.70;83.37
79709;BME280;69203;48.964;9.118;2023-04-15T01:58:24;97926.06;;;2.72;83.26
79709;BME280;69203;48.964;9.118;2023-04-15T01:59:24;97940.81;;;2.70;83.41
79709;BME280;69203;48.964;9.118;2023-04-15T02:00:25;97913.94;;;2.55;83.82
79709;BME280;69203;48.964;9.118;2023-04-15T02:01:26;97931.53;;;2.66;83.89
79709;BME280;69203;48.964;9.118;2023-04-15T02:02:26;97928.28;;;2.63;83.59
79709;BME280;69203;48.964;9.118;2023-04-15T02:03:27;97924.06;;;2.60;84.20
79709;BME280;69203;48.964;9.118;2023-04-15T02:04:28;97924.59;;;2.67;84.01
79709;BME280;69203;48.964;9.118;2023-04-15T02:05:29;97928.03;;;2.67;83.56
79709;BME280;69203;48.964;9.118;2023-04-15T02:06:29;97916.00;;;2.66;83.73
79709;BME280;69203;48.964;9.118;2023-04-15T02:07:30;97921.16;;;2.66;83.79
79709;BME280;69203;48.964;9.118;2023-04-15T02:08:31;97928.03;;;2.67;83.84
79709;BME280;69203;48.964;9.118;2023-04-15T02:09:31;97922.31;;;2.61;83.80
79709;BME280;69203;48.964;9.118;2023-04-15T02:10:32;97916.16;;;2.63;83.87
79709;BME280;69203;48.964;9.118;2023-04-15T02:11:32;97923.03;;;2.64;83.81
79709;BME280;69203;48.964;9.118;2023-04-15T02:12:34;97919.81;;;2.59;83.93
79709;BME280;69203;48.964;9.118;2023-04-15T02:13:35;97913.34;;;2.50;83.80
79709;BME280;69203;48.964;9.118;2023-04-15T02:14:35;97917.78;;;2.48;84.24
79709;BME280;69203;48.964;9.118;2023-04-15T02:15:35;97911.22;;;2.41;84.43
79709;BME280;69203;48.964;9.118;2023-04-15T02:16:36;97921.94;;;2.51;84.30
79709;BME280;69203;48.964;9.118;2023-04-15T02:17:36;97917.44;;;2.54;83.76
79709;BME280;69203;48.964;9.118;2023-04-15T02:18:37;97904.41;;;2.39;83.89
79709;BME280;69203;48.964;9.118;2023-04-15T02:19:37;97921.28;;;2.47;84.33
79709;BME280;69203;48.964;9.118;2023-04-15T02:20:38;97919.28;;;2.35;84.93
79709;BME280;69203;48.964;9.118;2023-04-15T02:21:38;97922.25;;;2.28;84.29
79709;BME280;69203;48.964;9.118;2023-04-15T02:22:39;97916.53;;;2.21;84.71
79709;BME280;69203;48.964;9.118;2023-04-15T02:23:39;97929.25;;;2.26;85.38
79709;BME280;69203;48.964;9.118;2023-04-15T02:24:40;97918.00;;;2.27;84.86
79709;BME280;69203;48.964;9.118;2023-04-15T02:25:40;97923.78;;;2.32;85.74
79709;BME280;69203;48.964;9.118;2023-04-15T02:26:40;97923.00;;;2.30;85.69
79709;BME280;69203;48.964;9.118;2023-04-15T02:27:41;97924.09;;;2.26;85.66
79709;BME280;69203;48.964;9.118;2023-04-15T02:28:41;97910.44;;;2.22;85.92
79709;BME280;69203;48.964;9.118;2023-04-15T02:29:42;97915.00;;;2.17;85.21
79709;BME280;69203;48.964;9.118;2023-04-15T02:30:46;97918.53;;;2.16;85.35
79709;BME280;69203;48.964;9.118;2023-04-15T02:31:47;97925.44;;;2.16;85.79
79709;BME280;69203;48.964;9.118;2023-04-15T02:32:47;97909.97;;;2.14;85.71
79709;BME280;69203;48.964;9.118;2023-04-15T02:33:47;97919.44;;;2.15;85.89
79709;BME280;69203;48.964;9.118;2023-04-15T02:34:48;97919.94;;;2.04;84.79
79709;BME280;69203;48.964;9.118;2023-04-15T02:35:48;97926.72;;;2.07;85.09
79709;BME280;69203;48.964;9.118;2023-04-15T02:36:49;97924.06;;;2.08;85.73
79709;BME280;69203;48.964;9.118;2023-04-15T02:37:54;97917.41;;;2.03;85.92
79709;BME280;69203;48.964;9.118;2023-04-15T02:38:54;97918.72;;;2.11;85.75
79709;BME280;69203;48.964;9.118;2023-04-15T02:39:54;97906.94;;;2.06;85.40
79709;BME280;69203;48.964;9.118;2023-04-15T02:40:55;97922.06;;;2.13;85.24
79709;BME280;69203;48.964;9.118;2023-04-15T02:41:56;97919.78;;;2.07;85.35
79709;BME280;69203;48.964;9.118;2023-04-15T02:42:58;97913.25;;;2.00;84.72
79709;BME280;69203;48.964;9.118;2023-04-15T02:43:59;97913.09;;;2.03;84.65
79709;BME280;69203;48.964;9.118;2023-04-15T02:45:01;97913.94;;;2.04;85.37
79709;BME280;69203;48.964;9.118;2023-04-15T02:46:01;97925.19;;;2.03;84.97
79709;BME280;69203;48.964;9.118;2023-04-15T02:47:01;97913.16;;;2.02;85.16
79709;BME280;69203;48.964;9.118;2023-04-15T02:48:04;97914.09;;;2.01;85.41
79709;BME280;69203;48.964;9.118;2023-04-15T02:49:05;97915.59;;;2.05;84.84
79709;BME280;69203;48.964;9.118;2023-04-15T02:50:11;97924.97;;;2.07;84.89
79709;BME280;69203;48.964;9.118;2023-04-15T02:51:14;97912.41;;;2.00;84.73
79709;BME280;69203;48.964;9.118;2023-04-15T02:52:14;97922.75;;;2.00;85.22
79709;BME280;69203;48.964;9.118;2023-04-15T02:53:15;97933.84;;;2.02;85.33
79709;BME280;69203;48.964;9.118;2023-04-15T02:54:18;97921.75;;;2.02;84.80
79709;BME280;69203;48.964;9.118;2023-04-15T02:55:18;97920.84;;;2.03;84.39
79709;BME280;69203;48.964;9.118;2023-04-15T02:56:19;97926.72;;;2.07;84.70
79709;BME280;69203;48.964;9.118;2023-04-15T02:57:20;97928.09;;;2.14;85.03
79709;BME280;69203;48.964;9.118;2023-04-15T02:58:21;97924.66;;;2.13;84.83
79709;BME280;69203;48.964;9.118;2023-04-15T02:59:21;97923.22;;;2.08;85.06
79709;BME280;69203;48.964;9.118;2023-04-15T03:00:22;97928.56;;;2.22;85.11
79709;BME280;69203;48.964;9.118;2023-04-15T03:01:24;97934.28;;;2.29;84.84
79709;BME280;69203;48.964;9.118;2023-04-15T03:02:25;97924.53;;;2.34;83.98
79709;BME280;69203;48.964;9.118;2023-04-15T03:03:25;97925.22;;;2.20;83.84
79709;BME280;69203;48.964;9.118;2023-04-15T03:04:27;97892.38;;;2.03;84.26
79709;BME280;69203;48.964;9.118;2023-04-15T03:05:30;97925.91;;;2.24;84.07
79709;BME280;69203;48.964;9.118;2023-04-15T03:06:30;97925.91;;;2.24;84.25
79709;BME280;69203;48.964;9.118;2023-04-15T03:07:31;97925.50;;;2.14;84.09
79709;BME280;69203;48.964;9.118;2023-04-15T03:08:31;97922.75;;;2.00;84.56
79709;BME280;69203;48.964;9.118;2023-04-15T03:09:32;97906.00;;;1.90;84.40
79709;BME280;69203;48.964;9.118;2023-04-15T03:10:32;97920.75;;;1.88;84.92
79709;BME280;69203;48.964;9.118;2023-04-15T03:11:32;97917.31;;;1.87;85.36
79709;BME280;69203;48.964;9.118;2023-04-15T03:12:34;97920.91;;;1.85;85.77
79709;BME280;69203;48.964;9.118;2023-04-15T03:13:35;97912.59;;;1.78;85.94
79709;BME280;69203;48.964;9.118;2023-04-15T03:14:36;97912.88;;;1.72;85.88
79709;BME280;69203;48.964;9.118;2023-04-15T03:15:36;97908.66;;;1.69;84.90
79709;BME280;69203;48.964;9.118;2023-04-15T03:16:36;97912.81;;;1.74;85.86
79709;BME280;69203;48.964;9.118;2023-04-15T03:17:37;97916.00;;;1.79;85.79
79709;BME280;69203;48.964;9.118;2023-04-15T03:18:37;97918.38;;;1.83;85.68
79709;BME280;69203;48.964;9.118;2023-04-15T03:19:38;97908.25;;;1.79;86.00
79709;BME280;69203;48.964;9.118;2023-04-15T03:20:38;97907.41;;;1.78;85.81
79709;BME280;69203;48.964;9.118;2023-04-15T03:21:38;97916.84;;;1.79;85.75
79709;BME280;69203;48.964;9.118;2023-04-15T03:22:39;97908.47;;;1.74;86.35
79709;BME280;69203;48.964;9.118;2023-04-15T03:23:39;97905.16;;;1.70;86.38
79709;BME280;69203;48.964;9.118;2023-04-15T03:24:40;97914.47;;;1.75;86.63
79709;BME280;69203;48.964;9.118;2023-04-15T03:25:40;97903.88;;;1.62;86.64
79709;BME280;69203;48.964;9.118;2023-04-15T03:26:41;97912.47;;;1.62;86.62
79709;BME280;69203;48.964;9.118;2023-04-15T03:27:41;97925.13;;;1.68;86.48
79709;BME280;69203;48.964;9.118;2023-04-15T03:28:42;97913.22;;;1.83;85.54
79709;BME280;69203;48.964;9.118;2023-04-15T03:29:42;97915.66;;;2.03;85.37
79709;BME280;69203;48.964;9.118;2023-04-15T03:30:42;97919.50;;;2.13;84.53
79709;BME280;69203;48.964;9.118;2023-04-15T03:31:42;97921.72;;;2.21;84.51
79709;BME280;69203;48.964;9.118;2023-04-15T03:32:43;97917.06;;;2.28;83.75
79709;BME280;69203;48.964;9.118;2023-04-15T03:33:43;97909.84;;;2.34;83.95
79709;BME280;69203;48.964;9.118;2023-04-15T03:34:43;97921.03;;;2.35;84.04
79709;BME280;69203;48.964;9.118;2023-04-15T03:35:44;97914.56;;;2.26;84.05
79709;BME280;69203;48.964;9.118;2023-04-15T03:36:45;97917.59;;;2.17;84.27
79709;BME280;69203;48.964;9.118;2023-04-15T03:37:45;97921.94;;;2.17;84.15
79709;BME280;69203;48.964;9.118;2023-04-15T03:38:48;97919.88;;;2.23;84.36
79709;BME280;69203;48.964;9.118;2023-04-15T03:39:49;97918.97;;;2.24;84.54
79709;BME280;69203;48.964;9.118;2023-04-15T03:40:49;97921.72;;;2.21;84.65
79709;BME280;69203;48.964;9.118;2023-04-15T03:41:50;97918.34;;;2.19;84.27
79709;BME280;69203;48.964;9.118;2023-04-15T03:42:50;97919.03;;;2.05;84.67
79709;BME280;69203;48.964;9.118;2023-04-15T03:43:50;97916.97;;;1.95;84.96
79709;BME280;69203;48.964;9.118;2023-04-15T03:44:51;97918.16;;;1.88;85.40
79709;BME280;69203;48.964;9.118;2023-04-15T03:45:51;97920.81;;;1.86;85.68
79709;BME280;69203;48.964;9.118;2023-04-15T03:46:51;97921.81;;;1.84;86.00
79709;BME280;69203;48.964;9.118;2023-04-15T03:47:52;97918.44;;;1.82;85.69
79709;BME280;69203;48.964;9.118;2023-04-15T03:48:52;97922.88;;;1.80;86.11
79709;BME280;69203;48.964;9.118;2023-04-15T03:49:52;97913.50;;;1.77;86.73
79709;BME280;69203;48.964;9.118;2023-04-15T03:50:53;97920.56;;;1.74;86.56
79709;BME280;69203;48.964;9.118;2023-04-15T03:51:53;97918.03;;;1.72;86.67
79709;BME280;69203;48.964;9.118;2023-04-15T03:52:53;97908.88;;;1.65;86.84
79709;BME280;69203;48.964;9.118;2023-04-15T03:53:54;97920.06;;;1.65;86.89
79709;BME280;69203;48.964;9.118;2023-04-15T03:54:55;97909.25;;;1.57;86.85
79709;BME280;69203;48.964;9.118;2023-04-15T03:55:55;97906.44;;;1.62;87.39
79709;BME280;69203;48.964;9.118;2023-04-15T03:56:55;97913.16;;;1.66;86.64
79709;BME280;69203;48.964;9.118;2023-04-15T03:57:56;97918.25;;;1.67;86.95
79709;BME280;69203;48.964;9.118;2023-04-15T03:58:57;97914.16;;;1.63;86.63
79709;BME280;69203;48.964;9.118;2023-04-15T03:59:57;97923.78;;;1.60;86.99
79709;BME280;69203;48.964;9.118;2023-04-15T04:00:57;97923.78;;;1.60;87.52
79709;BME280;69203;48.964;9.118;2023-04-15T04:01:58;97919.22;;;1.65;87.06
79709;BME280;69203;48.964;9.118;2023-04-15T04:02:58;97916.81;;;1.62;87.46
79709;BME280;69203;48.964;9.118;2023-04-15T04:03:59;97921.41;;;1.74;87.07
79709;BME280;69203;48.964;9.118;2023-04-15T04:04:59;97912.09;;;1.70;86.78
79709;BME280;69203;48.964;9.118;2023-04-15T04:06:00;97919.84;;;1.70;86.31
79709;BME280;69203;48.964;9.118;2023-04-15T04:07:00;97903.38;;;1.54;86.45
79709;BME280;69203;48.964;9.118;2023-04-15T04:08:00;97916.53;;;1.68;86.80
79709;BME280;69203;48.964;9.118;2023-04-15T04:09:01;97922.44;;;1.70;86.76
79709;BME280;69203;48.964;9.118;2023-04-15T04:10:02;97922.53;;;1.68;86.47
79709;BME280;69203;48.964;9.118;2023-04-15T04:11:03;97914.22;;;1.62;86.43
79709;BME280;69203;48.964;9.118;2023-04-15T04:12:03;97924.56;;;1.62;86.67
79709;BME280;69203;48.964;9.118;2023-04-15T04:13:03;97915.41;;;1.55;87.11
79709;BME280;69203;48.964;9.118;2023-04-15T04:14:04;97914.72;;;1.51;86.96
79709;BME280;69203;48.964;9.118;2023-04-15T04:15:05;97908.91;;;1.46;87.34
79709;BME280;69203;48.964;9.118;2023-04-15T04:16:06;97924.22;;;1.51;87.37
79709;BME280;69203;48.964;9.118;2023-04-15T04:17:06;97930.44;;;1.47;87.13
79709;BME280;69203;48.964;9.118;2023-04-15T04:18:07;97923.81;;;1.41;87.70
79709;BME280;69203;48.964;9.118;2023-04-15T04:19:07;97927.44;;;1.37;87.23
79709;BME280;69203;48.964;9.118;2023-04-15T04:20:07;97927.34;;;1.39;87.80
79709;BME280;69203;48.964;9.118;2023-04-15T04:21:08;97930.78;;;1.39;87.65
79709;BME280;69203;48.964;9.118;2023-04-15T04:22:08;97932.25;;;1.45;88.38
79709;BME280;69203;48.964;9.118;2023-04-15T04:23:08;97934.25;;;1.38;88.11
79709;BME280;69203;48.964;9.118;2023-04-15T04:24:09;97930.66;;;1.42;88.39
79709;BME280;69203;48.964;9.118;2023-04-15T04:25:09;97929.81;;;1.42;88.01
79709;BME280;69203;48.964;9.118;2023-04-15T04:26:10;97943.91;;;1.35;88.32
79709;BME280;69203;48.964;9.118;2023-04-15T04:27:10;97943.28;;;1.30;88.27
79709;BME280;69203;48.964;9.118;2023-04-15T04:28:10;97945.94;;;1.28;88.17
79709;BME280;69203;48.964;9.118;2023-04-15T04:29:11;97938.75;;;1.35;88.65
79709;BME280;69203;48.964;9.118;2023-04-15T04:30:11;97946.34;;;1.38;88.41
79709;BME280;69203;48.964;9.118;2023-04-15T04:31:11;97945.44;;;1.39;88.07
79709;BME280;69203;48.964;9.118;2023-04-15T04:32:12;97941.41;;;1.33;87.89
79709;BME280;69203;48.964;9.118;2023-04-15T04:33:15;97936.38;;;1.30;88.16
79709;BME280;69203;48.964;9.118;2023-04-15T04:34:15;97942.38;;;1.31;88.41
79709;BME280;69203;48.964;9.118;2023-04-15T04:35:16;97944.69;;;1.37;88.80
79709;BME280;69203;48.964;9.118;2023-04-15T04:36:16;97942.59;;;1.45;88.46
79709;BME280;69203;48.964;9.118;2023-04-15T04:37:17;97937.34;;;1.46;88.09
79709;BME280;69203;48.964;9.118;2023-04-15T04:38:17;97928.06;;;1.42;87.86
79709;BME280;69203;48.964;9.118;2023-04-15T04:39:18;97934.41;;;1.35;88.02
79709;BME280;69203;48.964;9.118;2023-04-15T04:40:18;97934.41;;;1.35;87.77
79709;BME280;69203;48.964;9.118;2023-04-15T04:41:18;97935.94;;;1.39;88.16
79709;BME280;69203;48.964;9.118;2023-04-15T04:42:19;97939.16;;;1.44;88.40
79709;BME280;69203;48.964;9.118;2023-04-15T04:43:19;97940.84;;;1.45;88.03
79709;BME280;69203;48.964;9.118;2023-04-15T04:44:20;97941.75;;;1.44;87.84
79709;BME280;69203;48.964;9.118;2023-04-15T04:45:21;97935.06;;;1.40;88.23
79709;BME280;69203;48.964;9.118;2023-04-15T04:46:21;97943.84;;;1.55;88.08
79709;BME280;69203;48.964;9.118;2023-04-15T04:47:22;97949.88;;;1.55;87.98
79709;BME280;69203;48.964;9.118;2023-04-15T04:48:23;97943.72;;;1.58;87.61
79709;BME280;69203;48.964;9.118;2023-04-15T04:49:23;97943.94;;;1.53;87.43
79709;BME280;69203;48.964;9.118;2023-04-15T04:50:23;97937.56;;;1.42;87.84
79709;BME280;69203;48.964;9.118;2023-04-15T04:51:24;97948.53;;;1.47;87.52
79709;BME280;69203;48.964;9.118;2023-04-15T04:52:25;97927.63;;;1.33;87.61
79709;BME280;69203;48.964;9.118;2023-04-15T04:53:26;97947.00;;;1.43;87.85
79709;BME280;69203;48.964;9.118;2023-04-15T04:54:27;97937.78;;;1.37;87.85
79709;BME280;69203;48.964;9.118;2023-04-15T04:55:27;97942.19;;;1.35;87.67
79709;BME280;69203;48.964;9.118;2023-04-15T04:56:27;97949.66;;;1.41;88.14
79709;BME280;69203;48.964;9.118;2023-04-15T04:57:28;97950.22;;;1.48;88.32
79709;BME280;69203;48.964;9.118;2023-04-15T04:58:28;97953.44;;;1.53;88.61
79709;BME280;69203;48.964;9.118;2023-04-15T04:59:28;97947.34;;;1.54;88.55
79709;BME280;69203;48.964;9.118;2023-04-15T05:00:29;97934.56;;;1.51;88.51
79709;BME280;69203;48.964;9.118;2023-04-15T05:01:29;97937.84;;;1.54;88.23
79709;BME280;69203;48.964;9.118;2023-04-15T05:02:30;97958.81;;;1.67;88.25
79709;BME280;69203;48.964;9.118;2023-04-15T05:03:31;97945.94;;;1.65;88.05
79709;BME280;69203;48.964;9.118;2023-04-15T05:04:31;97948.41;;;1.68;88.26
79709;BME280;69203;48.964;9.118;2023-04-15T05:05:32;97947.28;;;1.74;88.14
79709;BME280;69203;48.964;9.118;2023-04-15T05:06:34;97950.34;;;1.82;88.05
79709;BME280;69203;48.964;9.118;2023-04-15T05:07:36;97953.78;;;1.83;88.15
79709;BME280;69203;48.964;9.118;2023-04-15T05:08:36;97950.41;;;1.81;87.84
79709;BME280;69203;48.964;9.118;2023-04-15T05:09:37;97952.16;;;1.80;87.81
79709;BME280;69203;48.964;9.118;2023-04-15T05:10:37;97952.38;;;1.76;87.76
79709;BME280;69203;48.964;9.118;2023-04-15T05:11:37;97952.47;;;1.74;87.84
79709;BME280;69203;48.964;9.118;2023-04-15T05:12:38;97954.03;;;1.77;88.22
79709;BME280;69203;48.964;9.118;2023-04-15T05:13:38;97952.31;;;1.77;87.67
79709;BME280;69203;48.964;9.118;2023-04-15T05:14:38;97952.97;;;1.81;88.19
79709;BME280;69203;48.964;9.118;2023-04-15T05:15:40;97957.31;;;1.80;87.67
79709;BME280;69203;48.964;9.118;2023-04-15T05:16:42;97943.56;;;1.80;87.77
79709;BME280;69203;48.964;9.118;2023-04-15T05:17:42;97953.69;;;1.84;87.95
79709;BME280;69203;48.964;9.118;2023-04-15T05:18:44;97956.97;;;1.88;87.38
79709;BME280;69203;48.964;9.118;2023-04-15T05:19:45;97953.53;;;1.87;87.31
79709;BME280;69203;48.964;9.118;2023-04-15T05:20:45;97962.00;;;1.91;87.53
79709;BME280;69203;48.964;9.118;2023-04-15T05:21:46;97946.19;;;1.97;87.15
79709;BME280;69203;48.964;9.118;2023-04-15T05:22:48;97954.50;;;2.03;87.49
79709;BME280;69203;48.964;9.118;2023-04-15T05:23:48;97948.25;;;2.07;87.06
79709;BME280;69203;48.964;9.118;2023-04-15T05:24:48;97947.91;;;2.15;87.00
79709;BME280;69203;48.964;9.118;2023-04-15T05:25:49;97953.75;;;2.19;86.75
79709;BME280;69203;48.964;9.118;2023-04-15T05:26:49;97950.28;;;2.20;86.14